Weather at Narathiwat Airport

Public forecast

Using degrees Celsius for public forecast. Weather courtesy of forecast.io.

Current aviation weather report (METAR) for Narathiwat Airport

Report is more than 6 hours old.

Retrieved 2022/09/17 11:00 UTC (10 days ago):

VTSC 171100Z VRB02KT 9999 VCTS FEW018CB SCT040 28/25 Q1007 NOSIG

Aviation forecast (TAF) for Narathiwat Airport

Forecast is more than 12 hours old.

Retrieved 2022/09/17 18:00 UTC (10 days ago):

TAF VTSB 171700Z 1718/1818 20003KT 8000 FEW020 TAF VTSC 171700Z 1718/1818 20003KT 9999 FEW020 BECMG 1803/1805 03008KT TEMPO 1808/1815 VRB15G25KT 3000 TSRA FEW016CB SCT018 BKN100 BECMG 1815/1817 20003KT